Detall de PIREP

Printer-friendly versionPDF version

[2014/08/18 09:16:00]
Flight IATA:CT3117
Pilot Number:042
Company ICAO:CAT
Aircraft Type:F100/A
PAX:45
Aircraft Registration:PFJ
Departing Airport: LEZG
Destination Airport: LEBL
Alternate Airport:LEPA
Online: VATSIM
Route:GRAUS
Flight Level:F200
No Slew and time accel
No pause
Crash detect
Detect pilot in Cockpit between each 30 and 45 minutes
09:16 Zero fuel Weight: 81825 Lbs, Fuel Weight: 22689 Lbs
09:16 VATSIM:LEZG 180900Z 10007KT 060V130 9999 FEW020 23/17 Q1014
09:16 VATSIM:LEBL 180900Z 22012KT 9999 SCT020 26/19 Q1015 NOSIG
09:20 Parking Brakes off
09:25 Take-off
09:25 Take off Weight: 104080 Lbs
09:25 Wind: 103º @ 007 Knots Heading: 119º
09:25 POS N41º 39´ 39´´ W001º 01´ 16´´
09:25 Gear Up: 160 Knots
09:25 Flaps:2 at 160 Knots
09:25 Flaps:1 at 167 Knots
09:25 Flaps:0 at 190 Knots
09:33 TOC
09:33 Fuel Weight: 21001 Lb
09:40 Wind:194º@013 Knots Heading: 110º Ground Speed: 419 Knots Altitude 20045 ft
09:46 TOD
09:46 Fuel Weight: 19637 Lb
09:50 Flaps:1 at 192 Knots
09:53 Gear Down: 210 Knots
09:53 Gear Up: 209 Knots
09:53 Flaps:2 at 209 Knots
09:55 Wind:209º@018 Knots Heading: 229º Ground Speed: 186 Knots Altitude 4232 ft
09:56 Gear Down: 184 Knots
09:56 Flaps:3 at 184 Knots
09:58 TouchDown:Rate -183 ft/min Speed: 159 Knots
09:58 VATSIM:LEBL 180930Z 21013KT 9999 FEW020 26/19 Q1015 NOSIG
09:58 Land
09:58 Wind:211º@013 Knots
09:58 Heading: 232º
09:58 Flight Duration: 00:33
09:58 Landing Weight: 101062 Lbs
09:58 POS N41º 17´ 55´´ E002º 05´ 02´´
10:00 Parking brakes on
10:00 Block to Block Duration: 00:40
10:00 Final Fuel: 19111 Lbls
10:00 Spent Fuel: 3578 Lbls
10:00 Flight Length: 179 NM
10:00 TOD Land Length: 50 NM

Exportar CSV

Powered by Drupal - Modified by Danger4k